createdAt,value
2023-05-16T00:04:32.764Z,12.80
2023-05-16T00:09:33.919Z,12.80
2023-05-16T00:14:35.799Z,12.40
2023-05-16T00:19:41.499Z,12.80
2023-05-16T00:24:42.586Z,12.90
2023-05-16T00:29:43.838Z,14.70
2023-05-16T00:34:44.982Z,14.50
2023-05-16T00:39:46.444Z,17.20
2023-05-16T00:44:48.280Z,15.60
2023-05-16T00:49:50.099Z,14.90
2023-05-16T00:54:51.459Z,15.20
2023-05-16T00:59:52.975Z,15.70
2023-05-16T01:04:54.293Z,13.80
2023-05-16T01:09:55.554Z,13.50
2023-05-16T01:15:07.074Z,14.70
2023-05-16T01:20:31.025Z,13.70
2023-05-16T01:25:56.436Z,12.30
2023-05-16T01:30:57.805Z,12.70
2023-05-16T01:36:16.570Z,12.30
2023-05-16T01:41:46.802Z,12.60
2023-05-16T01:46:52.685Z,12.10
2023-05-16T01:52:00.888Z,11.10
2023-05-16T01:57:04.087Z,10.80
2023-05-16T02:02:05.410Z,12.20
2023-05-16T02:08:06.228Z,10.50
2023-05-16T02:14:27.182Z,9.80
2023-05-16T02:19:48.360Z,10.50
2023-05-16T02:24:49.686Z,11.20
2023-05-16T02:29:50.835Z,10.90
2023-05-16T02:34:52.691Z,13.40
2023-05-16T02:39:53.779Z,12.10
2023-05-16T02:44:55.189Z,13.50
2023-05-16T02:50:56.056Z,13.70
2023-05-16T02:57:16.864Z,11.70
2023-05-16T03:02:38.875Z,14.00
2023-05-16T03:08:41.809Z,12.50
2023-05-16T03:15:02.683Z,11.50
2023-05-16T03:21:23.543Z,12.60
2023-05-16T03:27:44.555Z,12.20
2023-05-16T03:33:27.380Z,13.20
2023-05-16T03:38:29.070Z,12.40
2023-05-16T03:43:30.454Z,13.90
2023-05-16T03:48:31.989Z,12.20
2023-05-16T03:53:33.120Z,12.20
2023-05-16T03:58:34.459Z,14.00
2023-05-16T04:03:37.554Z,13.80
2023-05-16T04:08:40.503Z,12.50
2023-05-16T04:13:41.752Z,12.80
2023-05-16T04:18:42.994Z,13.30
2023-05-16T04:23:44.303Z,13.20
2023-05-16T04:28:45.399Z,12.40
2023-05-16T04:33:46.608Z,12.70
2023-05-16T04:38:48.056Z,11.60
2023-05-16T04:43:49.146Z,12.00
2023-05-16T04:48:51.437Z,11.20
2023-05-16T04:53:52.573Z,10.60
2023-05-16T04:58:53.990Z,9.90
2023-05-16T05:03:55.529Z,9.40
2023-05-16T05:08:56.585Z,8.80
2023-05-16T05:13:57.693Z,7.50
2023-05-16T05:18:58.878Z,8.10
2023-05-16T05:24:00.281Z,8.10
2023-05-16T05:29:05.654Z,8.30
2023-05-16T05:35:07.103Z,7.30
2023-05-16T05:41:28.211Z,6.90
2023-05-16T05:46:49.604Z,6.90
2023-05-16T05:51:53.831Z,5.90
2023-05-16T05:56:57.112Z,6.20
2023-05-16T06:01:58.535Z,7.10
2023-05-16T06:06:59.934Z,6.70
2023-05-16T06:12:01.349Z,6.20
2023-05-16T06:17:02.730Z,5.60
2023-05-16T06:22:03.966Z,5.60
2023-05-16T06:27:05.668Z,6.40
2023-05-16T06:32:07.024Z,6.00
2023-05-16T06:37:08.275Z,5.80
2023-05-16T06:42:10.536Z,5.20
2023-05-16T06:47:12.202Z,5.50
2023-05-16T06:52:13.758Z,5.00
2023-05-16T06:58:14.731Z,5.80
2023-05-16T07:04:35.705Z,4.90
2023-05-16T07:10:36.601Z,5.30
2023-05-16T07:15:37.730Z,4.70
2023-05-16T07:20:39.210Z,4.80
2023-05-16T07:25:40.585Z,4.70
2023-05-16T07:30:42.210Z,5.00
2023-05-16T07:35:43.700Z,4.50
2023-05-16T07:41:44.596Z,4.80
2023-05-16T07:48:06.156Z,5.10
2023-05-16T07:54:27.343Z,4.50
2023-05-16T08:00:48.307Z,4.50
2023-05-16T08:06:39.313Z,4.80
2023-05-16T08:11:40.583Z,5.70
2023-05-16T08:17:41.534Z,5.40
2023-05-16T08:24:02.444Z,4.80
2023-05-16T08:29:23.527Z,4.80
2023-05-16T08:34:24.779Z,4.50
2023-05-16T08:40:25.725Z,4.70
2023-05-16T08:46:46.554Z,4.70
2023-05-16T08:53:07.431Z,5.50
2023-05-16T08:59:28.302Z,6.00
2023-05-16T09:04:49.652Z,6.20
2023-05-16T09:09:50.895Z,5.70
2023-05-16T09:14:51.950Z,6.80
2023-05-16T09:19:57.365Z,7.50
2023-05-16T09:24:59.400Z,7.50
2023-05-16T09:30:01.207Z,8.50
2023-05-16T09:35:02.894Z,7.90
2023-05-16T09:40:04.665Z,7.30
2023-05-16T09:45:06.393Z,6.70
2023-05-16T09:50:08.125Z,6.20
2023-05-16T09:55:10.603Z,7.10
2023-05-16T10:00:17.589Z,6.10
2023-05-16T10:05:18.965Z,5.30
2023-05-16T10:11:19.921Z,6.10
2023-05-16T10:16:43.048Z,5.30
2023-05-16T10:21:45.868Z,5.30
2023-05-16T10:26:47.131Z,3.90
2023-05-16T10:31:48.852Z,3.60
2023-05-16T10:38:09.780Z,3.90
2023-05-16T10:44:36.301Z,3.10
2023-05-16T10:50:37.750Z,4.00
2023-05-16T10:55:39.966Z,4.30
2023-05-16T11:00:41.297Z,4.20
2023-05-16T11:05:43.351Z,3.60
2023-05-16T11:10:44.562Z,5.50
2023-05-16T11:15:45.821Z,4.40
2023-05-16T11:20:52.264Z,4.20
2023-05-16T11:25:59.885Z,4.20
2023-05-16T11:31:04.540Z,4.90
2023-05-16T11:36:15.754Z,5.30
2023-05-16T11:42:17.681Z,5.70
2023-05-16T11:47:40.665Z,6.40
2023-05-16T11:52:47.308Z,6.30
2023-05-16T11:57:51.273Z,6.40
2023-05-16T12:03:03.698Z,6.10
2023-05-16T12:08:06.441Z,6.20
2023-05-16T12:13:08.152Z,5.50
2023-05-16T12:18:10.605Z,5.70
2023-05-16T12:23:13.311Z,6.80
2023-05-16T12:28:14.829Z,5.60
2023-05-16T12:33:16.551Z,7.00
2023-05-16T12:38:20.008Z,6.00
2023-05-16T12:44:21.002Z,5.70
2023-05-16T12:50:44.734Z,5.60
2023-05-16T12:56:06.296Z,5.30
2023-05-16T13:01:08.408Z,5.30
2023-05-16T13:07:11.003Z,5.20
2023-05-16T13:13:36.264Z,4.90
2023-05-16T13:18:58.699Z,5.50
2023-05-16T13:24:00.080Z,5.30
2023-05-16T13:29:01.582Z,5.40
2023-05-16T13:34:02.728Z,5.70
2023-05-16T13:39:04.063Z,5.60
2023-05-16T13:45:04.957Z,6.10
2023-05-16T13:51:25.835Z,6.30
2023-05-16T13:57:46.992Z,5.50
2023-05-16T14:03:08.881Z,5.50
2023-05-16T14:09:10.346Z,5.70
2023-05-16T14:14:31.468Z,4.90
2023-05-16T14:20:32.509Z,5.70
2023-05-16T14:26:55.945Z,6.10
2023-05-16T14:32:17.285Z,6.30
2023-05-16T14:37:19.656Z,7.70
2023-05-16T14:42:20.998Z,6.50
2023-05-16T14:47:23.478Z,7.50
2023-05-16T14:53:24.484Z,7.50
2023-05-16T14:59:45.385Z,7.80
2023-05-16T15:06:06.425Z,7.40
2023-05-16T15:12:27.264Z,9.00
2023-05-16T15:18:48.155Z,8.30
2023-05-16T15:24:09.932Z,8.40
2023-05-16T15:30:10.881Z,8.30
2023-05-16T15:36:31.862Z,9.90
2023-05-16T15:42:52.678Z,10.50
2023-05-16T15:49:23.518Z,9.20
2023-05-16T15:55:44.578Z,8.40
2023-05-16T16:01:05.870Z,9.80
2023-05-16T16:06:07.311Z,8.30
2023-05-16T16:12:08.624Z,7.90
2023-05-16T16:18:29.544Z,7.20
2023-05-16T16:24:50.389Z,9.00
2023-05-16T16:31:11.295Z,8.50
2023-05-16T16:37:32.170Z,8.10
2023-05-16T16:42:53.453Z,7.60
2023-05-16T16:47:55.220Z,9.50
2023-05-16T16:52:58.318Z,9.40
2023-05-16T16:58:01.275Z,9.00
2023-05-16T17:03:04.217Z,8.70
2023-05-16T17:08:06.798Z,8.70
2023-05-16T17:14:07.812Z,11.70
2023-05-16T17:20:28.662Z,10.20
2023-05-16T17:26:49.524Z,10.70
2023-05-16T17:33:10.497Z,9.80
2023-05-16T17:38:31.629Z,12.30
2023-05-16T17:43:32.804Z,12.50
2023-05-16T17:48:34.194Z,12.20
2023-05-16T17:53:36.862Z,12.10
2023-05-16T17:58:38.451Z,11.20
2023-05-16T18:03:42.617Z,12.70
2023-05-16T18:08:43.972Z,12.10
2023-05-16T18:13:48.824Z,11.10
2023-05-16T18:18:50.653Z,12.50
2023-05-16T18:23:51.868Z,13.00
2023-05-16T18:28:53.201Z,12.30
2023-05-16T18:33:54.467Z,12.90
2023-05-16T18:38:55.736Z,12.00
2023-05-16T18:43:57.098Z,12.80
2023-05-16T18:48:58.385Z,11.90
2023-05-16T18:53:59.597Z,13.00
2023-05-16T18:59:00.895Z,13.60
2023-05-16T19:04:02.085Z,14.00
2023-05-16T19:10:04.596Z,13.10
2023-05-16T19:16:26.817Z,13.60
2023-05-16T19:22:48.061Z,14.40
2023-05-16T19:27:51.234Z,16.40
2023-05-16T19:33:52.310Z,15.80
2023-05-16T19:40:07.841Z,13.80
2023-05-16T19:45:09.338Z,10.90
2023-05-16T19:50:10.598Z,12.70
2023-05-16T19:55:12.695Z,12.90
2023-05-16T20:00:14.452Z,10.50
2023-05-16T20:05:19.389Z,11.30
2023-05-16T20:10:22.160Z,10.30
2023-05-16T20:15:23.616Z,9.30
2023-05-16T20:20:25.532Z,9.90
2023-05-16T20:26:36.851Z,8.70
2023-05-16T20:32:57.753Z,8.80
2023-05-16T20:39:05.348Z,8.10
2023-05-16T20:45:26.450Z,8.10
2023-05-16T20:50:47.753Z,8.30
2023-05-16T20:55:49.001Z,6.60
2023-05-16T21:01:49.857Z,7.90
2023-05-16T21:08:10.925Z,8.80
2023-05-16T21:13:33.098Z,7.40
2023-05-16T21:18:34.449Z,8.30
2023-05-16T21:23:35.780Z,9.20
2023-05-16T21:29:36.663Z,8.80
2023-05-16T21:35:57.521Z,8.90
2023-05-16T21:42:19.007Z,9.10
2023-05-16T21:48:44.150Z,9.10
2023-05-16T21:55:05.688Z,9.00
2023-05-16T22:01:26.524Z,9.20
2023-05-16T22:07:50.050Z,8.90
2023-05-16T22:14:11.219Z,8.70
2023-05-16T22:20:32.140Z,8.00
2023-05-16T22:26:13.092Z,9.10
2023-05-16T22:31:14.435Z,9.10
2023-05-16T22:37:15.439Z,8.40
2023-05-16T22:42:36.469Z,7.80
2023-05-16T22:48:37.312Z,6.90
2023-05-16T22:54:58.247Z,7.80
2023-05-16T23:01:19.145Z,9.40
2023-05-16T23:07:39.988Z,8.70
2023-05-16T23:14:20.995Z,7.70
2023-05-16T23:20:41.847Z,8.00
2023-05-16T23:27:02.694Z,8.20
2023-05-16T23:33:23.668Z,8.70
2023-05-16T23:39:45.394Z,7.60
2023-05-16T23:45:08.543Z,7.80
2023-05-16T23:50:14.880Z,8.20
2023-05-16T23:56:15.794Z,9.00
